Time;durP1;ratioP1;P1;durP2;ratioP2;P2;SDS_P1;SDS_P2;PMS_P1;PMS_P2;Temp;Humidity;BMP_temperature;BMP_pressure;BME280_temperature;BME280_humidity;BME280_pressure;Samples;Min_cycle;Max_cycle;Signal;HPM_P1;HPM_P2
2023/04/17 00:04:03;;;;;;;22.85;17.52;;;;;;;8.07;100.00;102427.28;10222287;28;20077;-68
2023/04/17 00:08:59;;;;;;;25.83;19.13;;;;;;;8.05;100.00;102427.53;10219766;28;20076;-68
2023/04/17 00:13:56;;;;;;;27.48;18.95;;;;;;;8.00;100.00;102432.94;10217267;28;20067;-68
2023/04/17 00:18:53;;;;;;;22.67;17.33;;;;;;;7.88;100.00;102435.81;10223976;28;20534;-68
2023/04/17 00:23:49;;;;;;;23.05;17.20;;;;;;;7.84;100.00;102436.59;10220958;28;20042;-69
2023/04/17 00:28:47;;;;;;;26.23;18.13;;;;;;;7.74;100.00;102424.50;10216315;28;20137;-68
2023/04/17 00:33:45;;;;;;;22.95;17.13;;;;;;;7.71;100.00;102425.03;10220206;28;20140;-68
2023/04/17 00:38:41;;;;;;;27.75;18.65;;;;;;;7.64;100.00;102424.44;10226764;28;20140;-68
2023/04/17 00:43:38;;;;;;;30.00;17.73;;;;;;;7.61;100.00;102429.53;10203934;28;20049;-68
2023/04/17 00:48:37;;;;;;;24.48;17.38;;;;;;;7.58;100.00;102430.88;10204939;28;20046;-70
2023/04/17 00:53:35;;;;;;;24.08;17.42;;;;;;;7.55;100.00;102425.97;10220264;28;20621;-67
2023/04/17 00:58:33;;;;;;;25.38;17.70;;;;;;;7.52;100.00;102424.56;10219082;28;20392;-68
2023/04/17 01:08:42;;;;;;;25.00;18.52;;;;;;;7.45;100.00;102428.53;10855644;23;20467;-70
2023/04/17 01:13:45;;;;;;;26.48;17.77;;;;;;;7.49;100.00;102421.53;10068669;28;20081;-71
2023/04/17 01:18:42;;;;;;;23.35;17.52;;;;;;;7.44;100.00;102413.31;10055542;28;20456;-67
2023/04/17 01:23:53;;;;;;;31.23;20.15;;;;;;;7.37;100.00;102419.75;10059919;28;20055;-69
2023/04/17 01:28:51;;;;;;;33.42;18.95;;;;;;;7.31;100.00;102423.53;10059597;28;20047;-67
2023/04/17 01:33:48;;;;;;;27.55;17.45;;;;;;;7.35;100.00;102430.06;10071543;28;20055;-69
2023/04/17 01:38:45;;;;;;;28.90;19.35;;;;;;;7.35;100.00;102438.25;10056284;28;20047;-72
2023/04/17 01:43:43;;;;;;;30.95;19.33;;;;;;;7.30;100.00;102435.47;10056209;28;20126;-71
2023/04/17 01:48:40;;;;;;;29.83;19.85;;;;;;;7.36;100.00;102434.47;10055065;28;20055;-69
2023/04/17 01:53:39;;;;;;;26.67;18.80;;;;;;;7.35;100.00;102427.34;10066431;28;20657;-68
2023/04/17 01:58:35;;;;;;;29.80;18.48;;;;;;;7.32;100.00;102438.75;10062732;28;20130;-70
2023/04/17 02:03:32;;;;;;;28.00;18.58;;;;;;;7.24;100.00;102441.94;10072552;28;20868;-71
2023/04/17 02:08:28;;;;;;;29.27;18.48;;;;;;;7.32;100.00;102446.09;10065969;28;20576;-71
2023/04/17 02:13:25;;;;;;;29.45;19.58;;;;;;;7.23;100.00;102456.59;10080686;28;20051;-71
2023/04/17 02:18:22;;;;;;;27.63;19.58;;;;;;;7.23;100.00;102451.16;10072958;28;20094;-71
2023/04/17 02:23:18;;;;;;;27.83;19.50;;;;;;;7.26;100.00;102450.63;10070546;28;20137;-67
2023/04/17 02:28:15;;;;;;;33.35;20.67;;;;;;;7.20;100.00;102451.66;10071594;28;20051;-70
2023/04/17 02:33:11;;;;;;;33.10;21.15;;;;;;;7.14;100.00;102448.03;10066497;28;20146;-67
2023/04/17 02:38:08;;;;;;;28.15;19.65;;;;;;;7.17;100.00;102452.16;10068677;28;20051;-70
2023/04/17 02:43:04;;;;;;;30.27;20.73;;;;;;;7.11;100.00;102447.75;10061727;28;20098;-69
2023/04/17 02:48:01;;;;;;;30.15;21.95;;;;;;;7.13;100.00;102451.03;10076003;28;20532;-69
2023/04/17 02:52:58;;;;;;;31.45;20.55;;;;;;;7.11;100.00;102450.47;10077703;28;20063;-68
2023/04/17 02:57:54;;;;;;;30.08;20.95;;;;;;;7.05;100.00;102443.28;10055060;28;20048;-68
2023/04/17 03:02:51;;;;;;;35.58;24.30;;;;;;;7.06;100.00;102450.41;10065350;28;20043;-69
2023/04/17 03:07:52;;;;;;;30.50;21.25;;;;;;;7.10;100.00;102446.09;10070326;28;20058;-68
2023/04/17 03:12:48;;;;;;;42.38;24.92;;;;;;;7.00;100.00;102445.97;10072636;28;20175;-68
2023/04/17 03:17:46;;;;;;;32.65;23.55;;;;;;;7.02;100.00;102454.69;10068678;28;20134;-68
2023/04/17 03:22:42;;;;;;;35.83;21.35;;;;;;;7.01;100.00;102453.88;10060623;28;20053;-68
2023/04/17 03:27:39;;;;;;;31.58;22.80;;;;;;;6.98;100.00;102458.97;10052805;28;20050;-67
2023/04/17 03:32:36;;;;;;;37.20;24.92;;;;;;;6.94;100.00;102461.41;10070122;28;20075;-71
2023/04/17 03:37:33;;;;;;;38.55;24.30;;;;;;;7.01;100.00;102466.63;10061297;28;20099;-71
2023/04/17 03:42:30;;;;;;;39.63;26.00;;;;;;;7.04;100.00;102464.25;10063314;28;20126;-70
2023/04/17 03:47:26;;;;;;;34.65;23.58;;;;;;;7.07;100.00;102463.72;10059173;28;20044;-68
2023/04/17 03:52:23;;;;;;;35.97;25.55;;;;;;;7.09;100.00;102466.22;10068605;28;20071;-68
2023/04/17 03:57:19;;;;;;;36.20;26.55;;;;;;;6.94;100.00;102475.81;10053804;28;20669;-68
2023/04/17 04:02:16;;;;;;;47.25;30.73;;;;;;;6.92;100.00;102472.50;10070572;28;20501;-69
2023/04/17 04:07:12;;;;;;;36.05;26.92;;;;;;;6.95;100.00;102482.88;10056302;28;20050;-68
2023/04/17 04:12:09;;;;;;;41.63;26.45;;;;;;;7.08;100.00;102483.63;10048733;28;20082;-69
2023/04/17 04:17:06;;;;;;;39.55;27.33;;;;;;;7.04;100.00;102485.19;10053884;28;20051;-69
2023/04/17 04:22:03;;;;;;;45.50;29.75;;;;;;;6.99;100.00;102493.28;10061215;28;20589;-69
2023/04/17 04:27:05;;;;;;;46.80;29.90;;;;;;;6.98;100.00;102492.44;10066165;28;20537;-68
2023/04/17 04:32:03;;;;;;;46.35;29.85;;;;;;;6.95;100.00;102501.91;10064895;28;20086;-68
2023/04/17 04:37:00;;;;;;;41.22;28.85;;;;;;;6.98;100.00;102497.06;10060372;28;20505;-69
2023/04/17 04:42:04;;;;;;;41.38;28.65;;;;;;;7.09;100.00;102498.84;10061701;28;20066;-69
2023/04/17 04:47:01;;;;;;;41.22;29.17;;;;;;;7.09;100.00;102498.84;10054510;28;20059;-68
2023/04/17 04:51:57;;;;;;;44.13;29.50;;;;;;;7.10;100.00;102501.34;10068959;28;20102;-66
2023/04/17 04:56:54;;;;;;;40.70;28.40;;;;;;;7.13;100.00;102500.00;10058738;28;20051;-68
2023/04/17 05:01:50;;;;;;;44.90;29.33;;;;;;;7.18;100.00;102502.78;10070759;28;20598;-68
2023/04/17 05:06:47;;;;;;;43.55;30.48;;;;;;;7.20;100.00;102503.38;10051523;28;20047;-68
2023/04/17 05:11:43;;;;;;;49.70;30.45;;;;;;;7.23;100.00;102521.91;10042939;28;20039;-68
2023/04/17 05:16:40;;;;;;;40.55;28.88;;;;;;;7.27;100.00;102520.31;10048645;28;20051;-68
2023/04/17 05:21:36;;;;;;;45.47;32.13;;;;;;;7.28;100.00;102524.69;10053846;28;20094;-68
2023/04/17 05:26:33;;;;;;;43.03;29.63;;;;;;;7.30;100.00;102529.88;10063509;28;20442;-68
2023/04/17 05:31:30;;;;;;;46.30;31.63;;;;;;;7.44;100.00;102538.50;10055370;28;20505;-68
2023/04/17 05:36:26;;;;;;;46.78;32.17;;;;;;;7.40;100.00;102537.34;10052516;28;20063;-68
2023/04/17 05:41:23;;;;;;;47.05;30.65;;;;;;;7.55;100.00;102532.94;10056871;28;20051;-68
2023/04/17 05:46:19;;;;;;;50.10;32.22;;;;;;;7.63;100.00;102536.28;10058039;28;20560;-68
2023/04/17 05:51:16;;;;;;;45.17;31.92;;;;;;;7.67;100.00;102543.69;10062544;28;20043;-68
2023/04/17 05:56:13;;;;;;;43.33;30.83;;;;;;;7.76;100.00;102536.72;10060090;28;20048;-68
2023/04/17 06:01:11;;;;;;;45.85;30.92;;;;;;;7.86;100.00;102546.09;10058586;28;20048;-68
2023/04/17 06:06:08;;;;;;;43.35;29.30;;;;;;;7.80;100.00;102540.59;10060418;28;20057;-68
2023/04/17 06:11:05;;;;;;;44.10;30.65;;;;;;;7.85;100.00;102549.91;10055732;28;20071;-68
2023/04/17 06:16:02;;;;;;;51.33;32.65;;;;;;;7.74;100.00;102549.78;10061272;28;20085;-68
2023/04/17 06:20:58;;;;;;;45.47;30.85;;;;;;;7.94;100.00;102562.00;10059186;28;20486;-68
2023/04/17 06:25:55;;;;;;;48.58;32.38;;;;;;;8.29;100.00;102558.00;10059280;28;20052;-68
2023/04/17 06:30:52;;;;;;;43.25;29.85;;;;;;;8.28;100.00;102559.06;10054123;28;20142;-68
2023/04/17 06:35:48;;;;;;;46.42;29.42;;;;;;;8.42;100.00;102560.34;10015436;28;20138;-68
2023/04/17 06:40:45;;;;;;;41.60;28.27;;;;;;;8.48;100.00;102564.75;10057961;28;20779;-68
2023/04/17 06:45:42;;;;;;;46.25;29.35;;;;;;;8.67;100.00;102562.47;10063292;28;20524;-68
2023/04/17 06:50:38;;;;;;;38.88;25.50;;;;;;;8.50;100.00;102572.69;10065660;28;20040;-68
2023/04/17 06:55:37;;;;;;;33.88;24.20;;;;;;;8.67;100.00;102578.03;10069126;28;20089;-68
2023/04/17 07:00:33;;;;;;;33.85;24.30;;;;;;;8.68;100.00;102579.66;10070112;28;20071;-67
2023/04/17 07:05:30;;;;;;;34.45;25.02;;;;;;;8.73;100.00;102585.19;10067722;28;20043;-68
2023/04/17 07:10:26;;;;;;;31.77;23.52;;;;;;;8.82;100.00;102581.69;10058607;28;20097;-67
2023/04/17 07:15:23;;;;;;;34.83;24.30;;;;;;;8.89;100.00;102592.41;10059495;28;20062;-68
2023/04/17 07:20:20;;;;;;;33.50;23.55;;;;;;;8.87;100.00;102594.56;10071037;28;20058;-68
2023/04/17 07:25:16;;;;;;;30.33;22.50;;;;;;;8.87;100.00;102605.47;10068319;28;20125;-68
2023/04/17 07:30:13;;;;;;;34.72;23.10;;;;;;;8.98;100.00;102599.03;10062565;28;20043;-67
2023/04/17 07:35:10;;;;;;;32.25;22.70;;;;;;;9.01;100.00;102595.75;10071467;28;20053;-68
2023/04/17 07:40:08;;;;;;;35.42;24.38;;;;;;;9.19;100.00;102599.16;10067412;28;20146;-68
2023/04/17 07:45:05;;;;;;;30.75;23.45;;;;;;;9.28;100.00;102611.22;10069641;28;20078;-67
2023/04/17 07:50:02;;;;;;;28.33;20.60;;;;;;;9.51;100.00;102614.66;10067854;28;20150;-68
2023/04/17 07:54:58;;;;;;;29.27;21.77;;;;;;;9.71;100.00;102617.50;10068069;28;20060;-68
2023/04/17 07:59:55;;;;;;;31.15;21.77;;;;;;;9.94;100.00;102607.22;10056249;28;20556;-68
2023/04/17 08:04:53;;;;;;;30.45;18.88;;;;;;;10.01;100.00;102613.25;10058345;28;20083;-68
2023/04/17 08:09:50;;;;;;;23.88;18.30;;;;;;;10.15;100.00;102614.41;10064491;28;20498;-68
2023/04/17 08:14:46;;;;;;;22.40;17.52;;;;;;;10.36;100.00;102609.84;10060467;28;20051;-68
2023/04/17 08:19:42;;;;;;;26.23;17.52;;;;;;;10.55;100.00;102612.88;10065634;28;20051;-68
2023/04/17 08:24:39;;;;;;;19.00;16.20;;;;;;;10.71;100.00;102611.78;10068921;28;20558;-68
2023/04/17 08:29:36;;;;;;;24.45;18.60;;;;;;;10.83;100.00;102613.44;10060381;28;20054;-69
2023/04/17 08:34:34;;;;;;;21.85;16.85;;;;;;;11.04;100.00;102623.28;10062449;28;20062;-68
2023/04/17 08:39:31;;;;;;;19.85;16.27;;;;;;;11.28;100.00;102626.31;10058077;28;20094;-69
2023/04/17 08:44:28;;;;;;;18.80;15.40;;;;;;;11.52;100.00;102626.50;10056016;28;20062;-68
2023/04/17 08:49:28;;;;;;;19.48;15.20;;;;;;;11.42;100.00;102626.56;10061433;28;20043;-69
2023/04/17 08:54:24;;;;;;;21.80;16.52;;;;;;;11.67;100.00;102622.09;10066475;28;20082;-69
2023/04/17 08:59:22;;;;;;;16.92;14.23;;;;;;;11.97;100.00;102627.50;10061879;28;20086;-68
2023/04/17 09:04:38;;;;;;;16.92;14.23;;;;;;;12.07;100.00;102625.81;10057377;28;20056;-68
2023/04/17 09:09:49;;;;;;;16.33;12.25;;;;;;;12.29;100.00;102629.00;10062055;28;20102;-68
2023/04/17 09:14:46;;;;;;;14.20;12.13;;;;;;;12.39;100.00;102634.44;10050126;28;20578;-68
2023/04/17 09:20:06;;;;;;;15.95;11.65;;;;;;;12.26;100.00;102635.03;10057295;28;20047;-68
2023/04/17 09:25:03;;;;;;;13.82;11.90;;;;;;;12.33;100.00;102635.56;10064493;28;20640;-69
2023/04/17 09:30:02;;;;;;;12.65;11.32;;;;;;;12.73;100.00;102641.06;10061912;28;20051;-68
2023/04/17 09:35:02;;;;;;;12.68;11.18;;;;;;;12.93;100.00;102640.09;10054569;28;20055;-68
2023/04/17 09:40:00;;;;;;;15.63;11.43;;;;;;;13.12;100.00;102641.03;10055411;28;20059;-69
2023/04/17 09:45:17;;;;;;;13.25;11.10;;;;;;;13.32;100.00;102644.72;10059050;28;20075;-68
2023/04/17 09:50:20;;;;;;;13.80;11.50;;;;;;;13.93;100.00;102638.56;10042653;28;20052;-68
2023/04/17 09:55:22;;;;;;;14.43;12.07;;;;;;;14.35;100.00;102642.41;10050701;28;20059;-68
2023/04/17 10:00:20;;;;;;;15.32;12.63;;;;;;;14.27;100.00;102643.06;10068189;28;20055;-68
2023/04/17 10:05:19;;;;;;;13.40;12.00;;;;;;;14.70;100.00;102638.34;10064274;28;20054;-68
2023/04/17 10:10:32;;;;;;;14.60;13.00;;;;;;;15.70;100.00;102640.75;10058648;28;20047;-68
2023/04/17 10:15:28;;;;;;;;;;;;;;;15.87;100.00;102644.84;10062624;28;20047;-68
2023/04/17 10:20:27;;;;;;;16.02;12.98;;;;;;;16.74;100.00;102653.97;10061706;28;19965;-68
2023/04/17 10:25:25;;;;;;;17.85;12.75;;;;;;;16.94;100.00;102653.50;10070861;28;20420;-68
2023/04/17 10:30:22;;;;;;;20.40;15.18;;;;;;;17.87;100.00;102649.94;10060213;28;20055;-68
2023/04/17 10:35:19;;;;;;;14.43;12.65;;;;;;;18.85;100.00;102655.31;10071962;28;20052;-68
2023/04/17 10:40:21;;;;;;;12.90;11.70;;;;;;;19.62;100.00;102658.19;10061460;28;20126;-69
2023/04/17 10:45:18;;;;;;;13.77;12.37;;;;;;;20.11;100.00;102664.19;10064749;28;20071;-68
2023/04/17 10:50:16;;;;;;;14.63;13.13;;;;;;;20.65;100.00;102658.75;10069623;28;20051;-68
2023/04/17 10:55:19;;;;;;;16.13;14.48;;;;;;;20.58;100.00;102664.88;10061946;28;20552;-69
2023/04/17 11:00:17;;;;;;;17.20;14.27;;;;;;;21.34;92.40;102653.66;10062573;28;20130;-68
2023/04/17 11:05:14;;;;;;;13.68;12.23;;;;;;;21.14;85.83;102667.31;10072863;28;20639;-68
2023/04/17 11:10:12;;;;;;;14.23;12.15;;;;;;;20.80;82.97;102655.34;10061574;28;20067;-68
2023/04/17 11:15:09;;;;;;;13.55;11.80;;;;;;;20.60;81.02;102654.19;10060772;28;20399;-69
2023/04/17 11:20:05;;;;;;;11.18;10.07;;;;;;;21.21;63.91;102661.97;10066436;28;20055;-68
2023/04/17 11:25:03;;;;;;;13.63;10.85;;;;;;;21.33;61.55;102655.63;10065461;28;20055;-70
2023/04/17 11:30:00;;;;;;;11.63;9.13;;;;;;;21.69;54.02;102656.03;10061377;28;20055;-68
2023/04/17 11:34:56;;;;;;;14.43;10.57;;;;;;;20.05;63.39;102662.75;10066341;28;20040;-68
2023/04/17 11:40:04;;;;;;;11.35;9.85;;;;;;;20.57;64.07;102663.22;10071123;28;20138;-68
2023/04/17 11:45:03;;;;;;;15.95;9.48;;;;;;;19.67;62.67;102669.13;10077117;28;20052;-68
2023/04/17 11:50:00;;;;;;;12.75;9.35;;;;;;;19.21;61.30;102673.50;10061510;28;20055;-68
2023/04/17 11:54:57;;;;;;;10.85;8.77;;;;;;;20.18;54.26;102676.38;10061239;28;20039;-67
2023/04/17 11:59:53;;;;;;;11.80;9.05;;;;;;;19.99;57.31;102675.22;10062126;28;20046;-68
2023/04/17 12:04:50;;;;;;;9.98;8.98;;;;;;;19.47;57.06;102677.03;10071840;28;20043;-68
2023/04/17 12:09:55;;;;;;;14.27;10.18;;;;;;;19.10;56.45;102681.38;10065317;28;20047;-68
2023/04/17 12:14:52;;;;;;;14.18;9.57;;;;;;;20.40;55.82;102680.03;10055150;28;20047;-68
2023/04/17 12:19:49;;;;;;;12.68;9.63;;;;;;;21.19;54.87;102694.91;10059027;28;20043;-68
2023/04/17 12:24:45;;;;;;;9.52;8.50;;;;;;;22.43;46.59;102696.63;10053205;28;20420;-68
2023/04/17 12:29:42;;;;;;;11.40;9.25;;;;;;;21.74;50.76;102690.03;10051891;28;20306;-68
2023/04/17 12:34:40;;;;;;;12.43;11.23;;;;;;;21.48;48.21;102695.91;10065372;28;20572;-66
2023/04/17 12:39:37;;;;;;;14.13;10.45;;;;;;;23.23;41.41;102697.78;10059925;28;20054;-69
2023/04/17 12:44:33;;;;;;;11.52;9.80;;;;;;;21.26;44.32;102693.50;10050256;28;20569;-68
2023/04/17 12:49:30;;;;;;;14.55;10.90;;;;;;;20.70;41.81;102705.81;10050308;28;20073;-68
2023/04/17 12:54:26;;;;;;;13.05;10.43;;;;;;;21.76;39.53;102690.50;10048649;28;20047;-68
2023/04/17 12:59:22;;;;;;;13.00;10.77;;;;;;;22.03;34.98;102691.78;10047211;28;20146;-68
2023/04/17 13:04:19;;;;;;;12.43;9.32;;;;;;;22.76;33.05;102687.25;10058489;28;20047;-68
2023/04/17 13:09:16;;;;;;;15.80;9.70;;;;;;;22.22;34.82;102701.56;10051429;28;20138;-68
2023/04/17 13:14:14;;;;;;;11.30;9.75;;;;;;;21.56;33.50;102703.38;10057552;28;20550;-68
2023/04/17 13:19:10;;;;;;;10.98;8.75;;;;;;;21.50;39.06;102704.72;10064349;28;20097;-68
2023/04/17 13:24:13;;;;;;;12.60;9.25;;;;;;;20.94;41.05;102709.84;10060234;28;20085;-68
2023/04/17 13:29:09;;;;;;;;;;;;;;;20.24;42.83;102707.56;10060256;28;20043;-68
2023/04/17 13:34:06;;;;;;;15.02;9.35;;;;;;;20.66;43.62;102702.06;10061262;28;20411;-68
2023/04/17 13:39:06;;;;;;;11.23;8.82;;;;;;;20.37;39.82;102708.44;10061459;28;20090;-68
2023/04/17 13:44:03;;;;;;;10.52;8.43;;;;;;;21.19;40.87;102689.34;10069774;28;20421;-69
2023/04/17 13:48:59;;;;;;;9.30;8.23;;;;;;;21.28;43.96;102696.75;10057666;28;20082;-68
2023/04/17 13:53:59;;;;;;;9.68;8.68;;;;;;;21.33;41.63;102699.34;10067185;28;20138;-68
2023/04/17 13:58:56;;;;;;;9.75;8.85;;;;;;;21.73;39.99;102695.97;10072525;28;20043;-68
2023/04/17 14:03:53;;;;;;;10.90;8.60;;;;;;;21.71;47.41;102689.91;10073423;28;20039;-68
2023/04/17 14:08:49;;;;;;;10.15;9.13;;;;;;;21.30;44.25;102689.69;10074372;28;20039;-68
2023/04/17 14:13:46;;;;;;;10.35;8.85;;;;;;;21.17;47.06;102685.25;10058857;28;20071;-68
2023/04/17 14:18:44;;;;;;;12.27;9.43;;;;;;;19.74;51.58;102683.31;10068539;28;20077;-68
2023/04/17 14:23:41;;;;;;;10.80;9.80;;;;;;;19.49;55.85;102680.25;10067082;28;20075;-68
2023/04/17 14:28:38;;;;;;;9.77;8.85;;;;;;;19.62;58.06;102669.31;10068861;28;20719;-68
2023/04/17 14:33:35;;;;;;;11.35;9.57;;;;;;;19.65;50.28;102685.28;10062298;28;20039;-68
2023/04/17 14:38:32;;;;;;;10.48;9.48;;;;;;;18.90;56.15;102674.53;10064379;28;20461;-68
2023/04/17 14:43:28;;;;;;;11.88;9.65;;;;;;;18.42;66.21;102678.22;10069507;28;20107;-68
2023/04/17 14:48:25;;;;;;;9.95;8.95;;;;;;;18.21;63.43;102670.53;10072365;28;20078;-68
2023/04/17 14:53:21;;;;;;;10.20;9.20;;;;;;;17.15;73.13;102675.09;10069875;28;20097;-68
2023/04/17 14:58:18;;;;;;;9.77;8.85;;;;;;;18.16;68.77;102678.19;10061200;28;20046;-67
2023/04/17 15:03:14;;;;;;;10.75;9.65;;;;;;;18.19;72.90;102678.34;10070381;28;20436;-68
2023/04/17 15:08:11;;;;;;;12.48;9.38;;;;;;;19.01;67.53;102680.56;10061342;28;20040;-68
2023/04/17 15:13:07;;;;;;;10.48;9.23;;;;;;;18.63;67.37;102679.22;10061007;28;20123;-68
2023/04/17 15:18:04;;;;;;;11.30;9.82;;;;;;;17.43;77.22;102684.06;10068583;28;20051;-67
2023/04/17 15:23:01;;;;;;;11.23;9.82;;;;;;;17.81;78.85;102673.34;10070837;28;20125;-68
2023/04/17 15:27:58;;;;;;;10.38;9.27;;;;;;;17.78;71.50;102679.50;10074184;28;20899;-68
2023/04/17 15:32:54;;;;;;;11.00;9.13;;;;;;;17.46;69.03;102681.47;10067573;28;20118;-69
2023/04/17 15:37:51;;;;;;;11.20;10.02;;;;;;;17.87;59.09;102683.16;10059732;28;20988;-69
2023/04/17 15:42:47;;;;;;;10.75;9.32;;;;;;;19.53;54.24;102695.09;10068418;28;20059;-69
2023/04/17 15:47:44;;;;;;;10.80;9.50;;;;;;;20.07;50.24;102704.88;10071152;28;20537;-67
2023/04/17 15:52:40;;;;;;;11.05;9.50;;;;;;;19.16;54.21;102698.63;10070936;28;20043;-68
2023/04/17 15:57:37;;;;;;;13.85;9.02;;;;;;;18.32;53.11;102709.00;10063569;28;20134;-67
2023/04/17 16:02:35;;;;;;;10.35;9.35;;;;;;;18.50;54.12;102705.13;10066791;28;20039;-68
2023/04/17 16:07:32;;;;;;;11.45;9.93;;;;;;;17.92;52.29;102709.06;10057045;28;20059;-68
2023/04/17 16:12:28;;;;;;;10.85;9.80;;;;;;;18.05;58.01;102711.69;10055810;28;20039;-68
2023/04/17 16:17:24;;;;;;;11.30;9.13;;;;;;;18.16;56.89;102723.28;10051493;28;20058;-68
2023/04/17 16:22:21;;;;;;;11.00;8.75;;;;;;;17.66;62.73;102727.13;10066688;28;20051;-68
2023/04/17 16:27:17;;;;;;;10.45;8.30;;;;;;;18.15;55.01;102726.38;10060512;28;20059;-68
2023/04/17 16:32:14;;;;;;;10.27;8.30;;;;;;;19.64;49.90;102728.88;10051253;28;20126;-68
2023/04/17 16:37:10;;;;;;;9.43;8.00;;;;;;;18.48;53.40;102732.34;10058668;28;20059;-68
2023/04/17 16:42:08;;;;;;;11.73;8.73;;;;;;;18.34;51.83;102742.72;10056228;28;20047;-68
2023/04/17 16:47:04;;;;;;;9.25;8.07;;;;;;;17.71;48.88;102744.72;10055297;28;20110;-68
2023/04/17 16:52:09;;;;;;;11.13;8.40;;;;;;;18.40;44.09;102744.19;10062211;28;20074;-67
2023/04/17 16:57:07;;;;;;;10.80;8.93;;;;;;;17.94;43.42;102748.28;10064555;28;20768;-67
2023/04/17 17:02:03;;;;;;;13.38;9.50;;;;;;;18.49;41.19;102736.72;10066580;28;20051;-67
2023/04/17 17:07:00;;;;;;;9.95;8.95;;;;;;;16.97;47.38;102749.59;10060227;28;20056;-68
2023/04/17 17:11:56;;;;;;;14.93;8.75;;;;;;;16.21;45.89;102760.31;10055412;28;20720;-68
2023/04/17 17:16:53;;;;;;;12.82;8.90;;;;;;;14.78;50.02;102763.50;10068669;28;20085;-68
2023/04/17 17:21:49;;;;;;;15.60;9.40;;;;;;;13.74;53.46;102766.88;10066662;28;20043;-68
2023/04/17 17:26:46;;;;;;;13.70;9.55;;;;;;;13.68;56.12;102769.69;10060473;28;20094;-68
2023/04/17 17:31:42;;;;;;;14.90;11.23;;;;;;;12.79;61.33;102780.75;10071695;28;20044;-68
2023/04/17 17:36:39;;;;;;;12.48;9.43;;;;;;;12.22;65.06;102782.06;10060415;28;20047;-68
2023/04/17 17:41:35;;;;;;;12.88;9.95;;;;;;;12.15;71.93;102781.53;10063217;28;20051;-68
2023/04/17 17:46:34;;;;;;;12.88;10.65;;;;;;;11.93;75.47;102782.69;10055108;28;20098;-68
2023/04/17 17:51:31;;;;;;;15.35;10.32;;;;;;;11.63;77.55;102779.91;10067275;28;20047;-68
2023/04/17 17:56:27;;;;;;;12.15;9.70;;;;;;;11.62;74.32;102778.28;10057909;28;20572;-68
2023/04/17 18:01:24;;;;;;;15.32;8.93;;;;;;;11.14;84.06;102790.31;10064237;28;20462;-68
2023/04/17 18:06:20;;;;;;;14.27;10.10;;;;;;;11.19;82.04;102785.94;10064814;28;20616;-68
2023/04/17 18:11:17;;;;;;;12.27;9.48;;;;;;;11.15;89.11;102796.59;10068554;28;20043;-68
2023/04/17 18:16:14;;;;;;;12.73;9.70;;;;;;;11.33;89.39;102792.53;10054704;28;20055;-68
2023/04/17 18:21:11;;;;;;;13.98;8.50;;;;;;;11.10;93.69;102794.69;10067431;28;20114;-68
2023/04/17 18:26:08;;;;;;;14.43;9.32;;;;;;;10.86;100.00;102788.88;10066688;28;20058;-68
2023/04/17 18:31:04;;;;;;;13.50;8.02;;;;;;;10.70;100.00;102796.22;10060426;28;20078;-68
2023/04/17 18:36:00;;;;;;;14.75;8.63;;;;;;;10.37;100.00;102802.06;10055912;28;20063;-68
2023/04/17 18:40:58;;;;;;;11.30;8.20;;;;;;;10.53;100.00;102803.78;10051666;28;20048;-68
2023/04/17 18:45:54;;;;;;;11.88;8.23;;;;;;;10.26;100.00;102801.16;10038814;28;20051;-68
2023/04/17 18:50:51;;;;;;;10.00;7.78;;;;;;;10.01;100.00;102808.09;10044372;28;20047;-68
2023/04/17 18:55:47;;;;;;;11.95;8.73;;;;;;;9.97;100.00;102804.25;10071776;28;20637;-68
2023/04/17 19:00:44;;;;;;;13.25;8.27;;;;;;;9.88;100.00;102812.09;10072726;28;20047;-68
2023/04/17 19:05:40;;;;;;;11.80;8.98;;;;;;;9.64;100.00;102821.75;10073472;28;20545;-68
2023/04/17 19:10:37;;;;;;;13.95;9.60;;;;;;;9.49;100.00;102827.88;10074106;28;20660;-68
2023/04/17 19:15:35;;;;;;;12.65;10.02;;;;;;;9.47;100.00;102828.16;10067572;28;20048;-68
2023/04/17 19:20:32;;;;;;;14.48;10.05;;;;;;;9.17;100.00;102825.13;10063369;28;20082;-69
2023/04/17 19:25:28;;;;;;;12.63;9.75;;;;;;;9.03;100.00;102831.00;10070146;28;20078;-68
2023/04/17 19:30:25;;;;;;;15.80;11.05;;;;;;;8.83;100.00;102836.19;10063189;28;20122;-68
2023/04/17 19:35:21;;;;;;;11.63;9.55;;;;;;;9.02;100.00;102837.50;10068322;28;20422;-68
2023/04/17 19:40:18;;;;;;;16.15;11.65;;;;;;;8.54;100.00;102841.84;10064817;28;20090;-68
2023/04/17 19:45:21;;;;;;;17.60;10.77;;;;;;;9.03;100.00;102839.19;10064156;28;20083;-68
2023/04/17 19:50:17;;;;;;;13.90;10.57;;;;;;;8.81;100.00;102835.63;10061535;28;20055;-68
2023/04/17 19:55:14;;;;;;;12.73;9.63;;;;;;;8.93;100.00;102843.69;10054959;28;20047;-68
2023/04/17 20:00:11;;;;;;;18.00;10.75;;;;;;;9.06;100.00;102860.50;10066616;28;20158;-69
2023/04/17 20:05:08;;;;;;;19.80;11.07;;;;;;;8.90;100.00;102855.94;10062667;28;20051;-71
2023/04/17 20:10:05;;;;;;;13.25;10.05;;;;;;;8.67;100.00;102850.72;10064452;28;20102;-69
2023/04/17 20:15:02;;;;;;;15.80;12.00;;;;;;;8.74;100.00;102845.91;10072339;28;20047;-69
2023/04/17 20:19:59;;;;;;;15.63;10.57;;;;;;;8.97;100.00;102853.00;10067714;28;20070;-69
2023/04/17 20:24:55;;;;;;;15.70;10.93;;;;;;;9.14;100.00;102852.94;10069381;28;20055;-70
2023/04/17 20:29:51;;;;;;;18.65;11.82;;;;;;;9.17;100.00;102849.69;10070480;28;20058;-70
2023/04/17 20:34:48;;;;;;;15.40;10.90;;;;;;;9.10;100.00;102854.50;10073477;28;20035;-69
2023/04/17 20:39:44;;;;;;;18.33;11.05;;;;;;;9.06;100.00;102854.22;10071779;28;20050;-69
2023/04/17 20:44:41;;;;;;;19.52;11.23;;;;;;;9.07;100.00;102850.38;10071959;28;20044;-69
2023/04/17 20:49:37;;;;;;;18.65;11.13;;;;;;;8.99;100.00;102853.59;10065704;28;20056;-69
2023/04/17 20:54:34;;;;;;;16.98;12.20;;;;;;;8.63;100.00;102856.69;10088479;28;20046;-69
2023/04/17 20:59:32;;;;;;;17.83;10.75;;;;;;;8.80;100.00;102855.81;10065260;28;20043;-69
2023/04/17 21:04:29;;;;;;;15.38;10.50;;;;;;;8.91;100.00;102849.41;10068731;28;20058;-69
2023/04/17 21:09:29;;;;;;;22.05;12.25;;;;;;;8.77;100.00;102856.28;10067037;28;20082;-69
2023/04/17 21:14:26;;;;;;;17.08;11.57;;;;;;;8.91;100.00;102857.59;10074093;28;20126;-69
2023/04/17 21:19:25;;;;;;;16.08;11.32;;;;;;;8.55;100.00;102854.38;10068603;28;20130;-69
2023/04/17 21:24:23;;;;;;;16.08;10.63;;;;;;;8.71;100.00;102851.88;10061010;28;20052;-71
2023/04/17 21:29:19;;;;;;;14.88;11.23;;;;;;;8.67;100.00;102853.44;10071413;28;20071;-71
2023/04/17 21:34:16;;;;;;;17.20;11.40;;;;;;;8.61;100.00;102853.38;10063736;28;20525;-71
2023/04/17 21:39:12;;;;;;;16.27;11.55;;;;;;;8.56;100.00;102861.50;10063411;28;20517;-71
2023/04/17 21:44:09;;;;;;;17.08;11.90;;;;;;;8.68;100.00;102866.84;10067374;28;20075;-69
2023/04/17 21:49:06;;;;;;;20.98;11.57;;;;;;;8.76;100.00;102868.31;10072672;28;20555;-68
2023/04/17 21:54:03;;;;;;;23.73;12.48;;;;;;;8.46;100.00;102866.81;10067213;28;20054;-68
2023/04/17 21:58:59;;;;;;;16.83;11.68;;;;;;;8.70;100.00;102877.47;10073554;28;20047;-71
2023/04/17 22:03:56;;;;;;;17.35;11.38;;;;;;;8.58;100.00;102872.97;10065456;28;20053;-70
2023/04/17 22:08:52;;;;;;;17.10;11.02;;;;;;;8.60;100.00;102880.91;10063646;28;20049;-69
2023/04/17 22:13:49;;;;;;;16.30;11.45;;;;;;;8.49;100.00;102882.66;10063787;28;20134;-70
2023/04/17 22:18:45;;;;;;;13.85;9.88;;;;;;;8.42;100.00;102887.44;10075426;28;20125;-67
2023/04/17 22:23:42;;;;;;;16.67;11.30;;;;;;;8.43;100.00;102889.13;10078093;28;20044;-67
2023/04/17 22:28:38;;;;;;;18.70;12.25;;;;;;;8.29;100.00;102888.59;10073489;28;20182;-69